sensor_id;sensor_type;location;lat;lon;timestamp;pressure;altitude;pressure_sealevel;temperature;humidity
69971;BME280;57301;50.328;8.542;2022-12-15T00:01:50;97381.38;;;-6.31;82.39
69971;BME280;57301;50.328;8.542;2022-12-15T00:04:35;97388.63;;;-6.38;82.46
69971;BME280;57301;50.328;8.542;2022-12-15T00:07:20;97384.84;;;-6.32;82.50
69971;BME280;57301;50.328;8.542;2022-12-15T00:10:05;97399.28;;;-6.27;82.72
69971;BME280;57301;50.328;8.542;2022-12-15T00:12:50;97397.69;;;-6.29;82.83
69971;BME280;57301;50.328;8.542;2022-12-15T00:15:35;97406.59;;;-6.17;82.97
69971;BME280;57301;50.328;8.542;2022-12-15T00:18:30;97403.69;;;-6.11;82.44
69971;BME280;57301;50.328;8.542;2022-12-15T00:21:15;97406.22;;;-6.10;82.83
69971;BME280;57301;50.328;8.542;2022-12-15T00:24:01;97399.72;;;-6.01;83.08
69971;BME280;57301;50.328;8.542;2022-12-15T00:26:45;97394.22;;;-5.95;82.40
69971;BME280;57301;50.328;8.542;2022-12-15T00:29:30;97391.03;;;-6.00;81.67
69971;BME280;57301;50.328;8.542;2022-12-15T00:32:15;97393.94;;;-6.06;82.17
69971;BME280;57301;50.328;8.542;2022-12-15T00:35:00;97394.44;;;-6.00;82.71
69971;BME280;57301;50.328;8.542;2022-12-15T00:37:45;97398.19;;;-5.89;82.15
69971;BME280;57301;50.328;8.542;2022-12-15T00:40:30;97401.34;;;-5.83;82.43
69971;BME280;57301;50.328;8.542;2022-12-15T00:42:57;97415.06;;;-5.81;81.82
69971;BME280;57301;50.328;8.542;2022-12-15T00:45:26;97410.28;;;-5.88;81.97
69971;BME280;57301;50.328;8.542;2022-12-15T00:48:13;97417.41;;;-5.92;82.85
69971;BME280;57301;50.328;8.542;2022-12-15T00:50:43;97418.19;;;-5.74;82.86
69971;BME280;57301;50.328;8.542;2022-12-15T00:53:20;97422.41;;;-5.56;83.20
69971;BME280;57301;50.328;8.542;2022-12-15T00:56:05;97413.69;;;-5.55;83.10
69971;BME280;57301;50.328;8.542;2022-12-15T00:58:50;97412.75;;;-5.54;82.75
69971;BME280;57301;50.328;8.542;2022-12-15T01:01:36;97422.91;;;-5.49;83.87
69971;BME280;57301;50.328;8.542;2022-12-15T01:04:21;97429.63;;;-5.45;84.42
69971;BME280;57301;50.328;8.542;2022-12-15T01:07:07;97436.97;;;-5.53;86.32
69971;BME280;57301;50.328;8.542;2022-12-15T01:09:52;97432.25;;;-5.29;86.03
69971;BME280;57301;50.328;8.542;2022-12-15T01:12:37;97427.06;;;-5.14;86.13
69971;BME280;57301;50.328;8.542;2022-12-15T01:15:22;97436.13;;;-4.89;85.45
69971;BME280;57301;50.328;8.542;2022-12-15T01:18:07;97445.34;;;-4.83;84.70
69971;BME280;57301;50.328;8.542;2022-12-15T01:21:02;97445.66;;;-4.74;84.61
69971;BME280;57301;50.328;8.542;2022-12-15T01:23:34;97453.44;;;-4.74;84.25
69971;BME280;57301;50.328;8.542;2022-12-15T01:26:01;97453.28;;;-4.71;84.22
69971;BME280;57301;50.328;8.542;2022-12-15T01:28:27;97448.88;;;-4.84;85.00
69971;BME280;57301;50.328;8.542;2022-12-15T01:30:54;97453.28;;;-4.71;84.79
69971;BME280;57301;50.328;8.542;2022-12-15T01:33:21;97454.72;;;-4.65;85.03
69971;BME280;57301;50.328;8.542;2022-12-15T01:35:58;97451.69;;;-4.57;84.74
69971;BME280;57301;50.328;8.542;2022-12-15T01:38:26;97453.00;;;-4.50;84.94
69971;BME280;57301;50.328;8.542;2022-12-15T01:40:56;97450.75;;;-4.41;84.98
69971;BME280;57301;50.328;8.542;2022-12-15T01:43:27;97454.28;;;-4.42;85.17
69971;BME280;57301;50.328;8.542;2022-12-15T01:48:37;97453.47;;;-4.28;84.89
69971;BME280;57301;50.328;8.542;2022-12-15T01:51:13;97460.94;;;-4.22;85.16
69971;BME280;57301;50.328;8.542;2022-12-15T01:56:20;97463.34;;;-4.19;85.19
69971;BME280;57301;50.328;8.542;2022-12-15T01:58:50;97466.28;;;-4.09;84.73
69971;BME280;57301;50.328;8.542;2022-12-15T02:01:19;97469.03;;;-4.12;85.40
69971;BME280;57301;50.328;8.542;2022-12-15T02:03:49;97474.06;;;-4.09;85.79
69971;BME280;57301;50.328;8.542;2022-12-15T02:06:17;97480.34;;;-3.97;85.84
69971;BME280;57301;50.328;8.542;2022-12-15T02:08:48;97487.03;;;-3.93;85.95
69971;BME280;57301;50.328;8.542;2022-12-15T02:14:10;97483.53;;;-3.78;87.36
69971;BME280;57301;50.328;8.542;2022-12-15T02:16:41;97496.78;;;-3.67;87.73
69971;BME280;57301;50.328;8.542;2022-12-15T02:27:46;97512.16;;;-3.19;88.58
69971;BME280;57301;50.328;8.542;2022-12-15T02:30:19;97513.84;;;-3.04;88.05
69971;BME280;57301;50.328;8.542;2022-12-15T02:35:27;97509.81;;;-2.95;88.15
69971;BME280;57301;50.328;8.542;2022-12-15T02:37:55;97511.13;;;-3.03;88.10
69971;BME280;57301;50.328;8.542;2022-12-15T02:40:21;97512.06;;;-2.89;87.64
69971;BME280;57301;50.328;8.542;2022-12-15T02:42:52;97511.13;;;-2.74;87.45
69971;BME280;57301;50.328;8.542;2022-12-15T02:50:59;97522.50;;;-2.75;87.22
69971;BME280;57301;50.328;8.542;2022-12-15T02:53:45;97521.56;;;-3.17;88.75
69971;BME280;57301;50.328;8.542;2022-12-15T02:56:25;97514.97;;;-3.22;89.44
69971;BME280;57301;50.328;8.542;2022-12-15T03:01:35;97526.50;;;-2.98;88.87
69971;BME280;57301;50.328;8.542;2022-12-15T03:04:05;97525.66;;;-2.99;89.04
69971;BME280;57301;50.328;8.542;2022-12-15T03:06:33;97535.00;;;-2.94;88.77
69971;BME280;57301;50.328;8.542;2022-12-15T03:09:00;97531.53;;;-2.95;88.48
69971;BME280;57301;50.328;8.542;2022-12-15T03:11:27;97537.75;;;-2.83;88.22
69971;BME280;57301;50.328;8.542;2022-12-15T03:13:53;97536.09;;;-2.84;87.72
69971;BME280;57301;50.328;8.542;2022-12-15T03:16:20;97525.84;;;-2.87;87.79
69971;BME280;57301;50.328;8.542;2022-12-15T03:18:46;97532.22;;;-3.64;90.31
69971;BME280;57301;50.328;8.542;2022-12-15T03:21:13;97525.75;;;-3.29;90.09
69971;BME280;57301;50.328;8.542;2022-12-15T03:23:40;97524.28;;;-3.04;89.10
69971;BME280;57301;50.328;8.542;2022-12-15T03:26:06;97527.16;;;-2.94;87.53
69971;BME280;57301;50.328;8.542;2022-12-15T03:28:33;97533.22;;;-2.94;87.60
69971;BME280;57301;50.328;8.542;2022-12-15T03:31:00;97537.59;;;-3.23;88.76
69971;BME280;57301;50.328;8.542;2022-12-15T03:33:26;97525.66;;;-3.27;89.79
69971;BME280;57301;50.328;8.542;2022-12-15T03:35:54;97540.59;;;-3.01;88.52
69971;BME280;57301;50.328;8.542;2022-12-15T03:38:20;97536.47;;;-2.90;87.67
69971;BME280;57301;50.328;8.542;2022-12-15T03:40:47;97534.78;;;-2.91;87.06
69971;BME280;57301;50.328;8.542;2022-12-15T03:43:13;97539.84;;;-2.88;86.87
69971;BME280;57301;50.328;8.542;2022-12-15T03:45:40;97540.22;;;-2.94;87.12
69971;BME280;57301;50.328;8.542;2022-12-15T03:48:06;97547.66;;;-2.88;87.08
69971;BME280;57301;50.328;8.542;2022-12-15T03:50:33;97549.13;;;-2.84;86.65
69971;BME280;57301;50.328;8.542;2022-12-15T03:53:01;97548.75;;;-2.78;85.93
69971;BME280;57301;50.328;8.542;2022-12-15T03:55:27;97546.41;;;-2.83;85.80
69971;BME280;57301;50.328;8.542;2022-12-15T03:57:54;97544.75;;;-2.98;86.57
69971;BME280;57301;50.328;8.542;2022-12-15T04:00:22;97549.25;;;-3.00;86.74
69971;BME280;57301;50.328;8.542;2022-12-15T04:02:50;97557.53;;;-2.93;86.23
69971;BME280;57301;50.328;8.542;2022-12-15T04:05:20;97555.47;;;-3.17;86.41
69971;BME280;57301;50.328;8.542;2022-12-15T04:07:47;97557.28;;;-3.47;87.52
69971;BME280;57301;50.328;8.542;2022-12-15T04:10:13;97557.97;;;-3.74;88.91
69971;BME280;57301;50.328;8.542;2022-12-15T04:12:40;97558.97;;;-3.46;88.43
69971;BME280;57301;50.328;8.542;2022-12-15T04:15:08;97562.41;;;-3.32;88.12
69971;BME280;57301;50.328;8.542;2022-12-15T04:17:35;97559.53;;;-3.41;88.12
69971;BME280;57301;50.328;8.542;2022-12-15T04:20:03;97564.31;;;-3.64;88.73
69971;BME280;57301;50.328;8.542;2022-12-15T04:22:38;97565.81;;;-3.60;89.45
69971;BME280;57301;50.328;8.542;2022-12-15T04:25:06;97566.25;;;-3.37;88.65
69971;BME280;57301;50.328;8.542;2022-12-15T04:27:52;97569.81;;;-3.24;87.79
69971;BME280;57301;50.328;8.542;2022-12-15T04:30:41;97575.19;;;-3.27;87.22
69971;BME280;57301;50.328;8.542;2022-12-15T04:33:28;97578.66;;;-3.57;88.49
69971;BME280;57301;50.328;8.542;2022-12-15T04:36:13;97587.47;;;-3.89;89.91
69971;BME280;57301;50.328;8.542;2022-12-15T04:38:59;97583.56;;;-3.66;89.11
69971;BME280;57301;50.328;8.542;2022-12-15T04:41:44;97575.53;;;-3.47;88.03
69971;BME280;57301;50.328;8.542;2022-12-15T04:44:29;97584.41;;;-3.36;87.41
69971;BME280;57301;50.328;8.542;2022-12-15T04:47:15;97576.31;;;-3.31;87.29
69971;BME280;57301;50.328;8.542;2022-12-15T04:50:00;97581.53;;;-3.31;87.18
69971;BME280;57301;50.328;8.542;2022-12-15T04:52:46;97575.09;;;-3.26;87.06
69971;BME280;57301;50.328;8.542;2022-12-15T04:55:35;97587.75;;;-3.19;86.77
69971;BME280;57301;50.328;8.542;2022-12-15T04:58:20;97588.47;;;-3.32;86.83
69971;BME280;57301;50.328;8.542;2022-12-15T05:01:06;97597.59;;;-3.69;88.23
69971;BME280;57301;50.328;8.542;2022-12-15T05:03:51;97600.25;;;-3.85;88.84
69971;BME280;57301;50.328;8.542;2022-12-15T05:06:36;97603.63;;;-4.30;91.57
69971;BME280;57301;50.328;8.542;2022-12-15T05:09:21;97607.75;;;-4.57;93.18
69971;BME280;57301;50.328;8.542;2022-12-15T05:12:05;97607.78;;;-4.42;92.73
69971;BME280;57301;50.328;8.542;2022-12-15T05:14:50;97606.69;;;-4.22;92.78
69971;BME280;57301;50.328;8.542;2022-12-15T05:17:35;97595.50;;;-4.08;92.13
69971;BME280;57301;50.328;8.542;2022-12-15T05:20:20;97602.94;;;-3.86;90.90
69971;BME280;57301;50.328;8.542;2022-12-15T05:23:05;97612.09;;;-3.79;89.98
69971;BME280;57301;50.328;8.542;2022-12-15T05:25:50;97612.97;;;-3.64;89.35
69971;BME280;57301;50.328;8.542;2022-12-15T05:28:35;97619.47;;;-3.71;89.20
69971;BME280;57301;50.328;8.542;2022-12-15T05:31:20;97621.72;;;-3.81;89.32
69971;BME280;57301;50.328;8.542;2022-12-15T05:34:05;97621.81;;;-3.83;89.49
69971;BME280;57301;50.328;8.542;2022-12-15T05:36:32;97612.28;;;-3.98;90.15
69971;BME280;57301;50.328;8.542;2022-12-15T05:38:58;97621.44;;;-4.07;90.36
69971;BME280;57301;50.328;8.542;2022-12-15T05:41:25;97623.09;;;-3.90;90.08
69971;BME280;57301;50.328;8.542;2022-12-15T05:43:51;97620.41;;;-3.72;89.29
69971;BME280;57301;50.328;8.542;2022-12-15T05:46:18;97620.56;;;-3.75;88.80
69971;BME280;57301;50.328;8.542;2022-12-15T05:48:45;97619.81;;;-3.78;88.74
69971;BME280;57301;50.328;8.542;2022-12-15T05:51:12;97625.25;;;-3.66;89.04
69971;BME280;57301;50.328;8.542;2022-12-15T05:53:40;97634.88;;;-3.98;89.24
69971;BME280;57301;50.328;8.542;2022-12-15T05:56:09;97631.34;;;-3.97;89.96
69971;BME280;57301;50.328;8.542;2022-12-15T05:58:36;97627.88;;;-3.82;90.05
69971;BME280;57301;50.328;8.542;2022-12-15T06:01:12;97647.63;;;-4.25;90.99
69971;BME280;57301;50.328;8.542;2022-12-15T06:03:40;97644.41;;;-4.62;93.03
69971;BME280;57301;50.328;8.542;2022-12-15T06:06:08;97649.41;;;-4.42;93.17
69971;BME280;57301;50.328;8.542;2022-12-15T06:08:36;97651.91;;;-4.24;92.60
69971;BME280;57301;50.328;8.542;2022-12-15T06:11:04;97653.66;;;-3.93;91.46
69971;BME280;57301;50.328;8.542;2022-12-15T06:13:31;97650.03;;;-3.75;90.48
69971;BME280;57301;50.328;8.542;2022-12-15T06:16:06;97653.06;;;-3.67;89.35
69971;BME280;57301;50.328;8.542;2022-12-15T06:18:35;97647.53;;;-3.76;89.05
69971;BME280;57301;50.328;8.542;2022-12-15T06:21:08;97647.09;;;-3.69;88.81
69971;BME280;57301;50.328;8.542;2022-12-15T06:23:35;97656.75;;;-3.71;88.60
69971;BME280;57301;50.328;8.542;2022-12-15T06:26:19;97672.66;;;-3.75;88.59
69971;BME280;57301;50.328;8.542;2022-12-15T06:28:47;97680.75;;;-3.80;88.85
69971;BME280;57301;50.328;8.542;2022-12-15T06:31:14;97677.84;;;-3.75;89.04
69971;BME280;57301;50.328;8.542;2022-12-15T06:33:41;97677.50;;;-3.69;88.75
69971;BME280;57301;50.328;8.542;2022-12-15T06:36:12;97678.94;;;-3.64;88.26
69971;BME280;57301;50.328;8.542;2022-12-15T06:38:40;97687.34;;;-3.59;88.06
69971;BME280;57301;50.328;8.542;2022-12-15T06:41:16;97681.78;;;-3.53;87.71
69971;BME280;57301;50.328;8.542;2022-12-15T06:43:48;97676.81;;;-3.57;86.89
69971;BME280;57301;50.328;8.542;2022-12-15T06:46:16;97682.88;;;-3.57;86.62
69971;BME280;57301;50.328;8.542;2022-12-15T06:48:44;97681.28;;;-3.59;86.75
69971;BME280;57301;50.328;8.542;2022-12-15T06:51:12;97675.97;;;-3.58;86.67
69971;BME280;57301;50.328;8.542;2022-12-15T06:53:43;97690.28;;;-3.65;86.54
69971;BME280;57301;50.328;8.542;2022-12-15T06:56:25;97685.91;;;-3.64;86.62
69971;BME280;57301;50.328;8.542;2022-12-15T06:58:58;97701.38;;;-3.61;86.48
69971;BME280;57301;50.328;8.542;2022-12-15T07:01:25;97704.31;;;-3.83;87.26
69971;BME280;57301;50.328;8.542;2022-12-15T07:03:53;97713.47;;;-3.76;86.78
69971;BME280;57301;50.328;8.542;2022-12-15T07:06:20;97704.56;;;-3.88;87.22
69971;BME280;57301;50.328;8.542;2022-12-15T07:08:49;97715.25;;;-3.76;87.00
69971;BME280;57301;50.328;8.542;2022-12-15T07:11:20;97705.41;;;-3.71;86.76
69971;BME280;57301;50.328;8.542;2022-12-15T07:13:51;97704.50;;;-3.86;87.16
69971;BME280;57301;50.328;8.542;2022-12-15T07:16:19;97700.47;;;-3.76;86.54
69971;BME280;57301;50.328;8.542;2022-12-15T07:18:47;97707.94;;;-4.01;87.15
69971;BME280;57301;50.328;8.542;2022-12-15T07:21:14;97703.22;;;-3.95;87.36
69971;BME280;57301;50.328;8.542;2022-12-15T07:23:40;97707.28;;;-4.05;87.26
69971;BME280;57301;50.328;8.542;2022-12-15T07:26:24;97705.44;;;-4.03;87.17
69971;BME280;57301;50.328;8.542;2022-12-15T07:28:51;97709.56;;;-3.99;87.06
69971;BME280;57301;50.328;8.542;2022-12-15T07:31:18;97708.19;;;-4.06;87.42
69971;BME280;57301;50.328;8.542;2022-12-15T07:33:45;97711.47;;;-4.02;87.26
69971;BME280;57301;50.328;8.542;2022-12-15T07:36:13;97717.88;;;-3.92;86.85
69971;BME280;57301;50.328;8.542;2022-12-15T07:38:39;97723.22;;;-3.95;87.00
69971;BME280;57301;50.328;8.542;2022-12-15T07:41:09;97725.50;;;-3.89;86.82
69971;BME280;57301;50.328;8.542;2022-12-15T07:43:36;97730.28;;;-3.97;86.79
69971;BME280;57301;50.328;8.542;2022-12-15T07:46:04;97721.78;;;-4.01;86.80
69971;BME280;57301;50.328;8.542;2022-12-15T07:48:30;97721.28;;;-4.08;87.22
69971;BME280;57301;50.328;8.542;2022-12-15T07:50:57;97719.88;;;-3.97;87.11
69971;BME280;57301;50.328;8.542;2022-12-15T07:53:34;97724.16;;;-3.96;87.36
69971;BME280;57301;50.328;8.542;2022-12-15T07:56:03;97720.63;;;-3.95;87.04
69971;BME280;57301;50.328;8.542;2022-12-15T07:58:34;97723.66;;;-4.03;87.20
69971;BME280;57301;50.328;8.542;2022-12-15T08:01:03;97723.97;;;-4.09;87.29
69971;BME280;57301;50.328;8.542;2022-12-15T08:03:30;97724.06;;;-4.11;87.77
69971;BME280;57301;50.328;8.542;2022-12-15T08:06:02;97740.84;;;-4.16;88.00
69971;BME280;57301;50.328;8.542;2022-12-15T08:08:30;97746.72;;;-4.13;87.85
69971;BME280;57301;50.328;8.542;2022-12-15T08:10:57;97743.38;;;-4.15;88.07
69971;BME280;57301;50.328;8.542;2022-12-15T08:13:24;97739.09;;;-4.16;88.51
69971;BME280;57301;50.328;8.542;2022-12-15T08:16:11;97740.84;;;-4.00;88.53
69971;BME280;57301;50.328;8.542;2022-12-15T08:18:38;97750.78;;;-3.91;87.64
69971;BME280;57301;50.328;8.542;2022-12-15T08:21:06;97745.16;;;-3.84;87.25
69971;BME280;57301;50.328;8.542;2022-12-15T08:23:36;97745.72;;;-3.94;86.91
69971;BME280;57301;50.328;8.542;2022-12-15T08:26:05;97759.84;;;-3.98;87.38
69971;BME280;57301;50.328;8.542;2022-12-15T08:28:34;97760.25;;;-4.06;87.97
69971;BME280;57301;50.328;8.542;2022-12-15T08:31:05;97767.06;;;-4.03;87.88
69971;BME280;57301;50.328;8.542;2022-12-15T08:33:31;97758.09;;;-3.98;87.86
69971;BME280;57301;50.328;8.542;2022-12-15T08:36:08;97755.50;;;-3.82;87.43
69971;BME280;57301;50.328;8.542;2022-12-15T08:38:36;97756.84;;;-3.91;86.92
69971;BME280;57301;50.328;8.542;2022-12-15T08:41:19;97758.09;;;-3.82;87.31
69971;BME280;57301;50.328;8.542;2022-12-15T08:43:49;97766.41;;;-3.75;87.45
69971;BME280;57301;50.328;8.542;2022-12-15T08:46:27;97761.72;;;-3.69;87.00
69971;BME280;57301;50.328;8.542;2022-12-15T08:48:54;97749.97;;;-3.60;86.30
69971;BME280;57301;50.328;8.542;2022-12-15T08:51:24;97757.78;;;-3.60;85.91
69971;BME280;57301;50.328;8.542;2022-12-15T08:53:51;97765.84;;;-3.65;85.70
69971;BME280;57301;50.328;8.542;2022-12-15T08:56:19;97767.50;;;-3.64;85.04
69971;BME280;57301;50.328;8.542;2022-12-15T08:58:48;97764.00;;;-3.79;85.49
69971;BME280;57301;50.328;8.542;2022-12-15T09:01:17;97772.91;;;-3.67;85.37
69971;BME280;57301;50.328;8.542;2022-12-15T09:03:50;97777.84;;;-3.78;85.45
69971;BME280;57301;50.328;8.542;2022-12-15T09:06:20;97783.38;;;-3.84;85.86
69971;BME280;57301;50.328;8.542;2022-12-15T09:08:47;97785.41;;;-3.73;85.64
69971;BME280;57301;50.328;8.542;2022-12-15T09:11:16;97778.78;;;-3.79;85.32
69971;BME280;57301;50.328;8.542;2022-12-15T09:13:43;97783.38;;;-3.68;85.35
69971;BME280;57301;50.328;8.542;2022-12-15T09:16:15;97788.34;;;-3.64;85.09
69971;BME280;57301;50.328;8.542;2022-12-15T09:18:47;97784.25;;;-3.68;85.39
69971;BME280;57301;50.328;8.542;2022-12-15T09:21:15;97786.53;;;-3.62;85.24
69971;BME280;57301;50.328;8.542;2022-12-15T09:23:41;97787.88;;;-3.55;85.08
69971;BME280;57301;50.328;8.542;2022-12-15T09:26:12;97794.41;;;-3.47;84.74
69971;BME280;57301;50.328;8.542;2022-12-15T09:28:40;97802.81;;;-3.42;84.46
69971;BME280;57301;50.328;8.542;2022-12-15T09:31:13;97807.84;;;-3.39;84.58
69971;BME280;57301;50.328;8.542;2022-12-15T09:33:41;97804.75;;;-3.30;83.54
69971;BME280;57301;50.328;8.542;2022-12-15T09:36:08;97812.63;;;-3.32;83.69
69971;BME280;57301;50.328;8.542;2022-12-15T09:38:36;97822.22;;;-3.32;83.74
69971;BME280;57301;50.328;8.542;2022-12-15T09:43:44;97831.47;;;-3.27;82.39
69971;BME280;57301;50.328;8.542;2022-12-15T09:49:02;97830.06;;;-3.16;82.42
69971;BME280;57301;50.328;8.542;2022-12-15T09:51:39;97829.56;;;-3.23;82.63
69971;BME280;57301;50.328;8.542;2022-12-15T09:54:08;97831.06;;;-3.19;83.44
69971;BME280;57301;50.328;8.542;2022-12-15T09:56:43;97827.44;;;-3.01;83.23
69971;BME280;57301;50.328;8.542;2022-12-15T10:07:44;97835.69;;;-3.08;81.20
69971;BME280;57301;50.328;8.542;2022-12-15T10:12:56;97843.78;;;-3.13;81.16
69971;BME280;57301;50.328;8.542;2022-12-15T10:15:40;97843.91;;;-3.32;81.57
69971;BME280;57301;50.328;8.542;2022-12-15T10:18:24;97840.41;;;-3.31;82.57
69971;BME280;57301;50.328;8.542;2022-12-15T10:20:57;97837.63;;;-3.12;82.55
69971;BME280;57301;50.328;8.542;2022-12-15T10:23:25;97831.22;;;-3.22;82.17
69971;BME280;57301;50.328;8.542;2022-12-15T10:26:33;97840.75;;;-3.37;81.83
69971;BME280;57301;50.328;8.542;2022-12-15T10:29:23;97837.84;;;-3.64;83.41
69971;BME280;57301;50.328;8.542;2022-12-15T10:34:29;97828.56;;;-3.36;82.57
69971;BME280;57301;50.328;8.542;2022-12-15T10:36:59;97821.00;;;-3.25;82.60
69971;BME280;57301;50.328;8.542;2022-12-15T10:39:37;97822.72;;;-3.26;82.61
69971;BME280;57301;50.328;8.542;2022-12-15T10:42:31;97822.13;;;-3.15;82.40
69971;BME280;57301;50.328;8.542;2022-12-15T10:44:58;97826.59;;;-3.17;82.25
69971;BME280;57301;50.328;8.542;2022-12-15T10:47:27;97831.38;;;-2.93;81.80
69971;BME280;57301;50.328;8.542;2022-12-15T10:49:55;97836.25;;;-2.87;81.20
69971;BME280;57301;50.328;8.542;2022-12-15T10:52:49;97826.06;;;-2.92;81.10
69971;BME280;57301;50.328;8.542;2022-12-15T10:55:46;97824.19;;;-2.74;80.30
69971;BME280;57301;50.328;8.542;2022-12-15T10:58:17;97811.97;;;-2.74;80.21
69971;BME280;57301;50.328;8.542;2022-12-15T11:00:47;97817.44;;;-2.78;80.32
69971;BME280;57301;50.328;8.542;2022-12-15T11:03:24;97815.38;;;-2.87;80.74
69971;BME280;57301;50.328;8.542;2022-12-15T11:05:53;97811.31;;;-2.77;80.11
69971;BME280;57301;50.328;8.542;2022-12-15T11:08:21;97805.47;;;-2.66;80.30
69971;BME280;57301;50.328;8.542;2022-12-15T11:10:53;97794.41;;;-2.56;80.12
69971;BME280;57301;50.328;8.542;2022-12-15T11:13:39;97797.38;;;-2.62;79.77
69971;BME280;57301;50.328;8.542;2022-12-15T11:16:17;97814.47;;;-2.56;80.04
69971;BME280;57301;50.328;8.542;2022-12-15T11:18:54;97807.84;;;-2.48;79.73
69971;BME280;57301;50.328;8.542;2022-12-15T11:21:26;97810.25;;;-2.59;79.41
69971;BME280;57301;50.328;8.542;2022-12-15T11:24:13;97806.56;;;-2.71;78.75
69971;BME280;57301;50.328;8.542;2022-12-15T11:29:31;97801.50;;;-2.88;79.63
69971;BME280;57301;50.328;8.542;2022-12-15T11:32:02;97809.19;;;-3.01;80.51
69971;BME280;57301;50.328;8.542;2022-12-15T11:34:39;97793.75;;;-2.89;79.80
69971;BME280;57301;50.328;8.542;2022-12-15T11:37:31;97790.63;;;-2.80;80.26
69971;BME280;57301;50.328;8.542;2022-12-15T11:48:34;97786.13;;;-2.48;78.55
69971;BME280;57301;50.328;8.542;2022-12-15T11:53:48;97777.38;;;-2.77;80.05
69971;BME280;57301;50.328;8.542;2022-12-15T11:56:28;97771.75;;;-2.69;80.46
69971;BME280;57301;50.328;8.542;2022-12-15T11:59:08;97765.19;;;-2.77;80.09
69971;BME280;57301;50.328;8.542;2022-12-15T12:07:49;97748.97;;;-2.37;79.10
69971;BME280;57301;50.328;8.542;2022-12-15T12:10:22;97749.91;;;-2.38;79.55
69971;BME280;57301;50.328;8.542;2022-12-15T12:18:53;97753.50;;;-2.41;79.17
69971;BME280;57301;50.328;8.542;2022-12-15T12:21:28;97763.09;;;-2.56;79.00
69971;BME280;57301;50.328;8.542;2022-12-15T12:24:10;97762.50;;;-2.75;79.39
69971;BME280;57301;50.328;8.542;2022-12-15T12:26:44;97767.50;;;-3.32;82.36
69971;BME280;57301;50.328;8.542;2022-12-15T12:29:34;97759.69;;;-3.48;84.05
69971;BME280;57301;50.328;8.542;2022-12-15T12:32:14;97757.91;;;-3.32;83.76
69971;BME280;57301;50.328;8.542;2022-12-15T12:38:03;97757.50;;;-2.64;81.04
69971;BME280;57301;50.328;8.542;2022-12-15T12:43:07;97752.75;;;-2.57;80.60
69971;BME280;57301;50.328;8.542;2022-12-15T12:45:49;97752.91;;;-2.75;81.00
69971;BME280;57301;50.328;8.542;2022-12-15T12:48:26;97742.50;;;-2.90;81.42
69971;BME280;57301;50.328;8.542;2022-12-15T12:51:27;97734.03;;;-3.40;84.72
69971;BME280;57301;50.328;8.542;2022-12-15T12:53:55;97722.94;;;-2.98;83.46
69971;BME280;57301;50.328;8.542;2022-12-15T12:56:39;97714.03;;;-2.65;81.71
69971;BME280;57301;50.328;8.542;2022-12-15T13:07:32;97700.06;;;-2.78;82.79
69971;BME280;57301;50.328;8.542;2022-12-15T13:18:22;97694.97;;;-3.10;83.50
69971;BME280;57301;50.328;8.542;2022-12-15T13:20:53;97686.56;;;-3.15;85.39
69971;BME280;57301;50.328;8.542;2022-12-15T13:33:54;97662.25;;;-3.15;83.72
69971;BME280;57301;50.328;8.542;2022-12-15T13:41:29;97650.25;;;-3.18;85.51
69971;BME280;57301;50.328;8.542;2022-12-15T13:43:59;97639.72;;;-3.16;85.00
69971;BME280;57301;50.328;8.542;2022-12-15T13:46:27;97643.22;;;-3.32;85.05
69971;BME280;57301;50.328;8.542;2022-12-15T13:51:59;97632.16;;;-3.21;85.16
69971;BME280;57301;50.328;8.542;2022-12-15T13:54:34;97628.09;;;-3.25;85.65
69971;BME280;57301;50.328;8.542;2022-12-15T13:57:14;97619.50;;;-3.27;85.88
69971;BME280;57301;50.328;8.542;2022-12-15T13:59:44;97622.41;;;-3.17;86.09
69971;BME280;57301;50.328;8.542;2022-12-15T14:05:12;97622.94;;;-3.27;85.67
69971;BME280;57301;50.328;8.542;2022-12-15T14:07:42;97625.97;;;-3.48;86.99
69971;BME280;57301;50.328;8.542;2022-12-15T14:10:23;97628.56;;;-3.48;87.09
69971;BME280;57301;50.328;8.542;2022-12-15T14:12:53;97620.69;;;-3.63;87.71
69971;BME280;57301;50.328;8.542;2022-12-15T14:15:25;97620.88;;;-3.66;88.93
69971;BME280;57301;50.328;8.542;2022-12-15T14:17:53;97620.03;;;-3.66;88.68
69971;BME280;57301;50.328;8.542;2022-12-15T14:20:26;97622.69;;;-3.52;88.39
69971;BME280;57301;50.328;8.542;2022-12-15T14:22:53;97619.56;;;-3.43;88.34
69971;BME280;57301;50.328;8.542;2022-12-15T14:25:25;97620.06;;;-3.36;87.98
69971;BME280;57301;50.328;8.542;2022-12-15T14:27:55;97621.34;;;-3.43;87.99
69971;BME280;57301;50.328;8.542;2022-12-15T14:30:24;97627.28;;;-3.71;89.26
69971;BME280;57301;50.328;8.542;2022-12-15T14:35:31;97623.16;;;-3.45;88.89
69971;BME280;57301;50.328;8.542;2022-12-15T14:38:04;97631.75;;;-3.43;88.30
69971;BME280;57301;50.328;8.542;2022-12-15T14:40:35;97622.81;;;-3.39;88.33
69971;BME280;57301;50.328;8.542;2022-12-15T14:43:04;97624.44;;;-3.37;88.10
69971;BME280;57301;50.328;8.542;2022-12-15T14:45:31;97631.00;;;-3.45;87.33
69971;BME280;57301;50.328;8.542;2022-12-15T14:48:01;97637.44;;;-3.67;88.38
69971;BME280;57301;50.328;8.542;2022-12-15T14:50:51;97651.25;;;-3.96;89.39
69971;BME280;57301;50.328;8.542;2022-12-15T14:53:19;97645.94;;;-3.79;89.43
69971;BME280;57301;50.328;8.542;2022-12-15T14:55:47;97661.91;;;-3.85;89.92
69971;BME280;57301;50.328;8.542;2022-12-15T14:58:33;97671.81;;;-3.76;89.04
69971;BME280;57301;50.328;8.542;2022-12-15T15:01:01;97666.44;;;-3.73;88.99
69971;BME280;57301;50.328;8.542;2022-12-15T15:03:35;97668.28;;;-4.07;89.61
69971;BME280;57301;50.328;8.542;2022-12-15T15:06:04;97676.75;;;-3.87;90.11
69971;BME280;57301;50.328;8.542;2022-12-15T15:08:33;97677.53;;;-3.85;89.28
69971;BME280;57301;50.328;8.542;2022-12-15T15:13:44;97678.34;;;-3.69;88.88
69971;BME280;57301;50.328;8.542;2022-12-15T15:16:15;97677.53;;;-4.01;89.26
69971;BME280;57301;50.328;8.542;2022-12-15T15:18:43;97680.91;;;-4.15;89.40
69971;BME280;57301;50.328;8.542;2022-12-15T15:21:22;97687.59;;;-4.26;89.86
69971;BME280;57301;50.328;8.542;2022-12-15T15:24:00;97688.28;;;-4.23;89.75
69971;BME280;57301;50.328;8.542;2022-12-15T15:26:28;97689.91;;;-4.04;89.01
69971;BME280;57301;50.328;8.542;2022-12-15T15:28:56;97689.38;;;-3.95;88.84
69971;BME280;57301;50.328;8.542;2022-12-15T15:31:36;97688.72;;;-3.83;88.09
69971;BME280;57301;50.328;8.542;2022-12-15T15:34:07;97688.63;;;-3.82;88.08
69971;BME280;57301;50.328;8.542;2022-12-15T15:36:37;97691.31;;;-3.83;88.48